sensor_id;sensor_type;location;lat;lon;timestamp;P1;durP1;ratioP1;P2;durP2;ratioP2
27642;SDS011;15053;48.618;10.024;2024-02-26T00:01:45;12.68;;;8.45;;
27642;SDS011;15053;48.618;10.024;2024-02-26T00:04:12;13.15;;;8.52;;
27642;SDS011;15053;48.618;10.024;2024-02-26T00:06:39;12.98;;;8.35;;
27642;SDS011;15053;48.618;10.024;2024-02-26T00:09:09;12.48;;;8.05;;
27642;SDS011;15053;48.618;10.024;2024-02-26T00:11:36;13.73;;;8.45;;
27642;SDS011;15053;48.618;10.024;2024-02-26T00:14:03;13.48;;;8.75;;
27642;SDS011;15053;48.618;10.024;2024-02-26T00:16:30;13.52;;;8.80;;
27642;SDS011;15053;48.618;10.024;2024-02-26T00:18:57;13.88;;;8.45;;
27642;SDS011;15053;48.618;10.024;2024-02-26T00:21:24;11.18;;;8.15;;
27642;SDS011;15053;48.618;10.024;2024-02-26T00:23:53;12.52;;;8.95;;
27642;SDS011;15053;48.618;10.024;2024-02-26T00:26:20;13.07;;;9.00;;
27642;SDS011;15053;48.618;10.024;2024-02-26T00:28:46;16.23;;;9.63;;
27642;SDS011;15053;48.618;10.024;2024-02-26T00:31:13;11.68;;;7.75;;
27642;SDS011;15053;48.618;10.024;2024-02-26T00:33:39;13.73;;;8.38;;
27642;SDS011;15053;48.618;10.024;2024-02-26T00:36:06;13.07;;;8.20;;
27642;SDS011;15053;48.618;10.024;2024-02-26T00:38:33;13.95;;;8.60;;
27642;SDS011;15053;48.618;10.024;2024-02-26T00:41:00;15.50;;;9.02;;
27642;SDS011;15053;48.618;10.024;2024-02-26T00:43:26;13.45;;;7.88;;
27642;SDS011;15053;48.618;10.024;2024-02-26T00:45:52;11.95;;;7.85;;
27642;SDS011;15053;48.618;10.024;2024-02-26T00:48:19;13.90;;;7.97;;
27642;SDS011;15053;48.618;10.024;2024-02-26T00:50:46;12.50;;;7.40;;
27642;SDS011;15053;48.618;10.024;2024-02-26T00:53:12;13.32;;;8.45;;
27642;SDS011;15053;48.618;10.024;2024-02-26T00:55:39;12.68;;;8.25;;
27642;SDS011;15053;48.618;10.024;2024-02-26T00:58:05;14.27;;;8.02;;
27642;SDS011;15053;48.618;10.024;2024-02-26T01:00:32;12.50;;;7.60;;
27642;SDS011;15053;48.618;10.024;2024-02-26T01:02:58;10.60;;;7.47;;
27642;SDS011;15053;48.618;10.024;2024-02-26T01:05:26;10.25;;;7.03;;
27642;SDS011;15053;48.618;10.024;2024-02-26T01:07:52;10.55;;;7.88;;
27642;SDS011;15053;48.618;10.024;2024-02-26T01:10:19;12.43;;;8.57;;
27642;SDS011;15053;48.618;10.024;2024-02-26T01:12:46;17.77;;;9.73;;
27642;SDS011;15053;48.618;10.024;2024-02-26T01:15:12;11.48;;;8.10;;
27642;SDS011;15053;48.618;10.024;2024-02-26T01:17:39;13.38;;;7.60;;
27642;SDS011;15053;48.618;10.024;2024-02-26T01:20:06;12.40;;;7.43;;
27642;SDS011;15053;48.618;10.024;2024-02-26T01:22:33;12.90;;;7.65;;
27642;SDS011;15053;48.618;10.024;2024-02-26T01:24:59;15.43;;;8.10;;
27642;SDS011;15053;48.618;10.024;2024-02-26T01:27:25;12.75;;;7.75;;
27642;SDS011;15053;48.618;10.024;2024-02-26T01:29:53;13.48;;;8.50;;
27642;SDS011;15053;48.618;10.024;2024-02-26T01:32:20;13.75;;;8.02;;
27642;SDS011;15053;48.618;10.024;2024-02-26T01:34:46;12.98;;;8.63;;
27642;SDS011;15053;48.618;10.024;2024-02-26T01:37:13;14.30;;;8.80;;
27642;SDS011;15053;48.618;10.024;2024-02-26T01:39:39;14.82;;;7.78;;
27642;SDS011;15053;48.618;10.024;2024-02-26T01:42:08;12.65;;;8.32;;
27642;SDS011;15053;48.618;10.024;2024-02-26T01:44:34;15.00;;;8.40;;
27642;SDS011;15053;48.618;10.024;2024-02-26T01:47:01;17.80;;;9.35;;
27642;SDS011;15053;48.618;10.024;2024-02-26T01:49:28;17.30;;;9.93;;
27642;SDS011;15053;48.618;10.024;2024-02-26T01:51:56;16.45;;;9.15;;
27642;SDS011;15053;48.618;10.024;2024-02-26T01:54:24;13.65;;;7.82;;
27642;SDS011;15053;48.618;10.024;2024-02-26T01:56:51;15.95;;;9.15;;
27642;SDS011;15053;48.618;10.024;2024-02-26T01:59:18;15.38;;;9.43;;
27642;SDS011;15053;48.618;10.024;2024-02-26T02:01:45;16.55;;;8.88;;
27642;SDS011;15053;48.618;10.024;2024-02-26T02:04:16;13.20;;;8.00;;
27642;SDS011;15053;48.618;10.024;2024-02-26T02:06:45;19.45;;;9.38;;
27642;SDS011;15053;48.618;10.024;2024-02-26T02:09:12;15.43;;;9.55;;
27642;SDS011;15053;48.618;10.024;2024-02-26T02:11:39;16.98;;;8.85;;
27642;SDS011;15053;48.618;10.024;2024-02-26T02:14:05;18.30;;;9.60;;
27642;SDS011;15053;48.618;10.024;2024-02-26T02:16:32;19.75;;;10.95;;
27642;SDS011;15053;48.618;10.024;2024-02-26T02:18:59;17.50;;;9.50;;
27642;SDS011;15053;48.618;10.024;2024-02-26T02:21:26;15.95;;;9.27;;
27642;SDS011;15053;48.618;10.024;2024-02-26T02:23:52;15.50;;;9.65;;
27642;SDS011;15053;48.618;10.024;2024-02-26T02:26:19;17.08;;;10.02;;
27642;SDS011;15053;48.618;10.024;2024-02-26T02:28:46;17.60;;;9.85;;
27642;SDS011;15053;48.618;10.024;2024-02-26T02:31:14;14.38;;;9.35;;
27642;SDS011;15053;48.618;10.024;2024-02-26T02:33:42;16.13;;;10.75;;
27642;SDS011;15053;48.618;10.024;2024-02-26T02:36:09;16.88;;;10.60;;
27642;SDS011;15053;48.618;10.024;2024-02-26T02:38:36;20.13;;;11.18;;
27642;SDS011;15053;48.618;10.024;2024-02-26T02:41:04;18.05;;;10.20;;
27642;SDS011;15053;48.618;10.024;2024-02-26T02:43:31;16.05;;;10.18;;
27642;SDS011;15053;48.618;10.024;2024-02-26T02:45:57;14.32;;;9.55;;
27642;SDS011;15053;48.618;10.024;2024-02-26T02:48:24;15.80;;;9.95;;
27642;SDS011;15053;48.618;10.024;2024-02-26T02:50:51;18.58;;;10.77;;
27642;SDS011;15053;48.618;10.024;2024-02-26T02:53:17;14.02;;;10.15;;
27642;SDS011;15053;48.618;10.024;2024-02-26T02:55:44;16.92;;;10.18;;
27642;SDS011;15053;48.618;10.024;2024-02-26T02:58:11;17.38;;;10.75;;
27642;SDS011;15053;48.618;10.024;2024-02-26T03:00:37;16.17;;;9.98;;
27642;SDS011;15053;48.618;10.024;2024-02-26T03:03:04;18.73;;;9.77;;
27642;SDS011;15053;48.618;10.024;2024-02-26T03:05:31;16.98;;;11.18;;
27642;SDS011;15053;48.618;10.024;2024-02-26T03:07:57;18.70;;;10.73;;
27642;SDS011;15053;48.618;10.024;2024-02-26T03:10:24;21.90;;;12.82;;
27642;SDS011;15053;48.618;10.024;2024-02-26T03:12:50;20.23;;;11.68;;
27642;SDS011;15053;48.618;10.024;2024-02-26T03:15:17;18.33;;;11.07;;
27642;SDS011;15053;48.618;10.024;2024-02-26T03:17:43;17.73;;;11.30;;
27642;SDS011;15053;48.618;10.024;2024-02-26T03:20:10;18.00;;;11.25;;
27642;SDS011;15053;48.618;10.024;2024-02-26T03:22:38;19.42;;;11.98;;
27642;SDS011;15053;48.618;10.024;2024-02-26T03:25:05;17.42;;;11.45;;
27642;SDS011;15053;48.618;10.024;2024-02-26T03:27:32;20.27;;;11.73;;
27642;SDS011;15053;48.618;10.024;2024-02-26T03:29:59;24.15;;;13.38;;
27642;SDS011;15053;48.618;10.024;2024-02-26T03:32:26;19.45;;;11.48;;
27642;SDS011;15053;48.618;10.024;2024-02-26T03:34:53;18.17;;;10.77;;
27642;SDS011;15053;48.618;10.024;2024-02-26T03:37:21;18.58;;;11.82;;
27642;SDS011;15053;48.618;10.024;2024-02-26T03:39:47;20.38;;;11.27;;
27642;SDS011;15053;48.618;10.024;2024-02-26T03:42:14;18.83;;;11.35;;
27642;SDS011;15053;48.618;10.024;2024-02-26T03:44:40;17.40;;;10.98;;
27642;SDS011;15053;48.618;10.024;2024-02-26T03:47:07;28.15;;;12.85;;
27642;SDS011;15053;48.618;10.024;2024-02-26T03:49:34;20.92;;;11.90;;
27642;SDS011;15053;48.618;10.024;2024-02-26T03:52:00;17.38;;;10.45;;
27642;SDS011;15053;48.618;10.024;2024-02-26T03:54:27;19.10;;;10.90;;
27642;SDS011;15053;48.618;10.024;2024-02-26T03:56:54;15.60;;;9.88;;
27642;SDS011;15053;48.618;10.024;2024-02-26T03:59:20;19.30;;;11.00;;
27642;SDS011;15053;48.618;10.024;2024-02-26T04:01:48;18.50;;;10.00;;
27642;SDS011;15053;48.618;10.024;2024-02-26T04:04:14;18.52;;;11.35;;
27642;SDS011;15053;48.618;10.024;2024-02-26T04:06:46;17.83;;;10.85;;
27642;SDS011;15053;48.618;10.024;2024-02-26T04:09:14;19.20;;;10.65;;
27642;SDS011;15053;48.618;10.024;2024-02-26T04:11:40;17.75;;;10.73;;
27642;SDS011;15053;48.618;10.024;2024-02-26T04:14:09;15.93;;;10.00;;
27642;SDS011;15053;48.618;10.024;2024-02-26T04:16:38;17.30;;;10.77;;
27642;SDS011;15053;48.618;10.024;2024-02-26T04:19:05;19.35;;;10.95;;
27642;SDS011;15053;48.618;10.024;2024-02-26T04:21:31;18.25;;;10.73;;
27642;SDS011;15053;48.618;10.024;2024-02-26T04:23:58;18.60;;;10.05;;
27642;SDS011;15053;48.618;10.024;2024-02-26T04:26:28;19.50;;;11.07;;
27642;SDS011;15053;48.618;10.024;2024-02-26T04:28:55;17.85;;;11.38;;
27642;SDS011;15053;48.618;10.024;2024-02-26T04:31:21;19.23;;;10.82;;
27642;SDS011;15053;48.618;10.024;2024-02-26T04:33:48;19.50;;;10.88;;
27642;SDS011;15053;48.618;10.024;2024-02-26T04:36:15;19.55;;;11.35;;
27642;SDS011;15053;48.618;10.024;2024-02-26T04:38:43;16.85;;;10.82;;
27642;SDS011;15053;48.618;10.024;2024-02-26T04:41:09;20.17;;;12.05;;
27642;SDS011;15053;48.618;10.024;2024-02-26T04:43:36;21.45;;;11.73;;
27642;SDS011;15053;48.618;10.024;2024-02-26T04:48:34;20.30;;;11.75;;
27642;SDS011;15053;48.618;10.024;2024-02-26T04:51:02;15.20;;;10.07;;
27642;SDS011;15053;48.618;10.024;2024-02-26T04:53:29;18.58;;;11.00;;
27642;SDS011;15053;48.618;10.024;2024-02-26T04:55:56;25.08;;;15.57;;
27642;SDS011;15053;48.618;10.024;2024-02-26T04:58:22;19.95;;;13.63;;
27642;SDS011;15053;48.618;10.024;2024-02-26T05:00:49;22.23;;;13.65;;
27642;SDS011;15053;48.618;10.024;2024-02-26T05:03:15;22.10;;;12.50;;
27642;SDS011;15053;48.618;10.024;2024-02-26T05:05:43;22.50;;;12.40;;
27642;SDS011;15053;48.618;10.024;2024-02-26T05:08:09;19.48;;;10.65;;
27642;SDS011;15053;48.618;10.024;2024-02-26T05:10:39;17.67;;;11.50;;
27642;SDS011;15053;48.618;10.024;2024-02-26T05:13:07;18.38;;;10.82;;
27642;SDS011;15053;48.618;10.024;2024-02-26T05:15:33;19.42;;;10.65;;
27642;SDS011;15053;48.618;10.024;2024-02-26T05:18:00;19.40;;;11.60;;
27642;SDS011;15053;48.618;10.024;2024-02-26T05:20:27;17.02;;;10.77;;
27642;SDS011;15053;48.618;10.024;2024-02-26T05:22:53;17.23;;;10.50;;
27642;SDS011;15053;48.618;10.024;2024-02-26T05:25:20;19.63;;;11.55;;
27642;SDS011;15053;48.618;10.024;2024-02-26T05:27:46;20.40;;;11.10;;
27642;SDS011;15053;48.618;10.024;2024-02-26T05:30:13;17.55;;;10.35;;
27642;SDS011;15053;48.618;10.024;2024-02-26T05:32:39;19.92;;;11.30;;
27642;SDS011;15053;48.618;10.024;2024-02-26T05:35:07;18.95;;;9.93;;
27642;SDS011;15053;48.618;10.024;2024-02-26T05:37:33;19.88;;;9.88;;
27642;SDS011;15053;48.618;10.024;2024-02-26T05:40:00;16.83;;;9.77;;
27642;SDS011;15053;48.618;10.024;2024-02-26T05:42:27;15.15;;;9.15;;
27642;SDS011;15053;48.618;10.024;2024-02-26T05:44:53;16.15;;;8.70;;
27642;SDS011;15053;48.618;10.024;2024-02-26T05:47:20;15.98;;;9.10;;
27642;SDS011;15053;48.618;10.024;2024-02-26T05:49:46;17.27;;;10.25;;
27642;SDS011;15053;48.618;10.024;2024-02-26T05:52:13;15.70;;;10.23;;
27642;SDS011;15053;48.618;10.024;2024-02-26T05:54:39;17.98;;;9.90;;
27642;SDS011;15053;48.618;10.024;2024-02-26T05:57:06;15.48;;;9.52;;
27642;SDS011;15053;48.618;10.024;2024-02-26T05:59:32;17.52;;;10.27;;
27642;SDS011;15053;48.618;10.024;2024-02-26T06:01:59;17.80;;;9.38;;
27642;SDS011;15053;48.618;10.024;2024-02-26T06:04:25;18.15;;;9.63;;
27642;SDS011;15053;48.618;10.024;2024-02-26T06:06:52;14.15;;;9.10;;
27642;SDS011;15053;48.618;10.024;2024-02-26T06:09:18;18.27;;;10.00;;
27642;SDS011;15053;48.618;10.024;2024-02-26T06:11:45;16.60;;;10.00;;
27642;SDS011;15053;48.618;10.024;2024-02-26T06:14:11;19.83;;;11.38;;
27642;SDS011;15053;48.618;10.024;2024-02-26T06:16:40;22.35;;;11.98;;
27642;SDS011;15053;48.618;10.024;2024-02-26T06:19:07;20.65;;;12.15;;
27642;SDS011;15053;48.618;10.024;2024-02-26T06:21:37;18.98;;;11.93;;
27642;SDS011;15053;48.618;10.024;2024-02-26T06:24:03;19.95;;;11.60;;
27642;SDS011;15053;48.618;10.024;2024-02-26T06:26:30;21.05;;;11.80;;
27642;SDS011;15053;48.618;10.024;2024-02-26T06:28:57;20.23;;;11.98;;
27642;SDS011;15053;48.618;10.024;2024-02-26T06:31:23;25.23;;;13.45;;
27642;SDS011;15053;48.618;10.024;2024-02-26T06:33:49;20.60;;;11.77;;
27642;SDS011;15053;48.618;10.024;2024-02-26T06:36:16;21.35;;;12.75;;
27642;SDS011;15053;48.618;10.024;2024-02-26T06:38:43;18.90;;;11.68;;
27642;SDS011;15053;48.618;10.024;2024-02-26T06:41:09;20.92;;;13.18;;
27642;SDS011;15053;48.618;10.024;2024-02-26T06:43:37;22.42;;;13.13;;
27642;SDS011;15053;48.618;10.024;2024-02-26T06:46:04;19.95;;;11.57;;
27642;SDS011;15053;48.618;10.024;2024-02-26T06:48:32;20.95;;;11.75;;
27642;SDS011;15053;48.618;10.024;2024-02-26T06:50:58;19.38;;;11.65;;
27642;SDS011;15053;48.618;10.024;2024-02-26T06:53:25;20.48;;;11.95;;
27642;SDS011;15053;48.618;10.024;2024-02-26T06:55:52;16.23;;;10.50;;
27642;SDS011;15053;48.618;10.024;2024-02-26T06:58:18;20.58;;;10.90;;
27642;SDS011;15053;48.618;10.024;2024-02-26T07:00:45;17.42;;;11.38;;
27642;SDS011;15053;48.618;10.024;2024-02-26T07:03:12;21.13;;;12.80;;
27642;SDS011;15053;48.618;10.024;2024-02-26T07:05:40;20.17;;;12.30;;
27642;SDS011;15053;48.618;10.024;2024-02-26T07:08:06;25.23;;;12.50;;
27642;SDS011;15053;48.618;10.024;2024-02-26T07:10:33;25.30;;;12.52;;
27642;SDS011;15053;48.618;10.024;2024-02-26T07:13:00;28.85;;;16.45;;
27642;SDS011;15053;48.618;10.024;2024-02-26T07:15:26;28.45;;;15.70;;
27642;SDS011;15053;48.618;10.024;2024-02-26T07:17:54;27.73;;;14.32;;
27642;SDS011;15053;48.618;10.024;2024-02-26T07:20:20;24.75;;;14.75;;
27642;SDS011;15053;48.618;10.024;2024-02-26T07:22:47;34.83;;;16.92;;
27642;SDS011;15053;48.618;10.024;2024-02-26T07:25:13;29.75;;;17.05;;
27642;SDS011;15053;48.618;10.024;2024-02-26T07:27:42;27.30;;;15.68;;
27642;SDS011;15053;48.618;10.024;2024-02-26T07:30:09;24.83;;;14.30;;
27642;SDS011;15053;48.618;10.024;2024-02-26T07:32:36;24.88;;;13.20;;
27642;SDS011;15053;48.618;10.024;2024-02-26T07:35:02;26.83;;;13.80;;
27642;SDS011;15053;48.618;10.024;2024-02-26T07:37:29;24.02;;;13.07;;
27642;SDS011;15053;48.618;10.024;2024-02-26T07:39:56;24.75;;;13.95;;
27642;SDS011;15053;48.618;10.024;2024-02-26T07:42:23;23.85;;;13.25;;
27642;SDS011;15053;48.618;10.024;2024-02-26T07:44:50;27.38;;;14.60;;
27642;SDS011;15053;48.618;10.024;2024-02-26T07:47:17;26.38;;;14.52;;
27642;SDS011;15053;48.618;10.024;2024-02-26T07:49:43;23.15;;;13.38;;
27642;SDS011;15053;48.618;10.024;2024-02-26T07:52:10;27.10;;;12.55;;
27642;SDS011;15053;48.618;10.024;2024-02-26T07:54:37;24.45;;;13.35;;
27642;SDS011;15053;48.618;10.024;2024-02-26T07:57:03;19.23;;;12.52;;
27642;SDS011;15053;48.618;10.024;2024-02-26T07:59:31;20.90;;;11.63;;
27642;SDS011;15053;48.618;10.024;2024-02-26T08:01:58;22.40;;;11.75;;
27642;SDS011;15053;48.618;10.024;2024-02-26T08:04:25;20.65;;;11.95;;
27642;SDS011;15053;48.618;10.024;2024-02-26T08:06:53;18.50;;;11.02;;
27642;SDS011;15053;48.618;10.024;2024-02-26T08:09:19;21.63;;;11.65;;
27642;SDS011;15053;48.618;10.024;2024-02-26T08:11:46;21.30;;;11.50;;
27642;SDS011;15053;48.618;10.024;2024-02-26T08:14:13;22.92;;;12.55;;
27642;SDS011;15053;48.618;10.024;2024-02-26T08:16:40;26.55;;;11.90;;
27642;SDS011;15053;48.618;10.024;2024-02-26T08:19:06;24.52;;;11.27;;
27642;SDS011;15053;48.618;10.024;2024-02-26T08:21:33;22.38;;;11.90;;
27642;SDS011;15053;48.618;10.024;2024-02-26T08:23:59;21.85;;;11.55;;
27642;SDS011;15053;48.618;10.024;2024-02-26T08:26:26;22.77;;;12.63;;
27642;SDS011;15053;48.618;10.024;2024-02-26T08:28:52;19.77;;;11.13;;
27642;SDS011;15053;48.618;10.024;2024-02-26T08:31:20;21.40;;;11.32;;
27642;SDS011;15053;48.618;10.024;2024-02-26T08:33:47;24.85;;;11.60;;
27642;SDS011;15053;48.618;10.024;2024-02-26T08:36:14;24.95;;;11.82;;
27642;SDS011;15053;48.618;10.024;2024-02-26T08:38:40;22.70;;;11.77;;
27642;SDS011;15053;48.618;10.024;2024-02-26T08:41:07;22.88;;;11.95;;
27642;SDS011;15053;48.618;10.024;2024-02-26T08:43:33;23.05;;;12.45;;
27642;SDS011;15053;48.618;10.024;2024-02-26T08:46:00;21.85;;;12.38;;
27642;SDS011;15053;48.618;10.024;2024-02-26T08:48:26;23.77;;;12.88;;
27642;SDS011;15053;48.618;10.024;2024-02-26T08:50:53;21.00;;;12.20;;
27642;SDS011;15053;48.618;10.024;2024-02-26T08:53:20;26.88;;;12.57;;
27642;SDS011;15053;48.618;10.024;2024-02-26T08:55:56;21.80;;;11.90;;
27642;SDS011;15053;48.618;10.024;2024-02-26T08:58:23;18.27;;;11.35;;
27642;SDS011;15053;48.618;10.024;2024-02-26T09:00:49;18.25;;;10.38;;
27642;SDS011;15053;48.618;10.024;2024-02-26T09:03:16;32.97;;;15.30;;
27642;SDS011;15053;48.618;10.024;2024-02-26T09:05:43;22.23;;;12.05;;
27642;SDS011;15053;48.618;10.024;2024-02-26T09:08:09;21.85;;;12.57;;
27642;SDS011;15053;48.618;10.024;2024-02-26T09:10:36;20.10;;;12.25;;
27642;SDS011;15053;48.618;10.024;2024-02-26T09:13:02;21.23;;;12.82;;
27642;SDS011;15053;48.618;10.024;2024-02-26T09:15:29;27.80;;;13.85;;
27642;SDS011;15053;48.618;10.024;2024-02-26T09:17:56;21.52;;;12.07;;
27642;SDS011;15053;48.618;10.024;2024-02-26T09:20:23;17.65;;;11.35;;
27642;SDS011;15053;48.618;10.024;2024-02-26T09:22:50;20.42;;;11.75;;
27642;SDS011;15053;48.618;10.024;2024-02-26T09:25:17;17.92;;;10.52;;
27642;SDS011;15053;48.618;10.024;2024-02-26T09:27:44;21.55;;;11.32;;
27642;SDS011;15053;48.618;10.024;2024-02-26T09:30:10;18.15;;;10.48;;
27642;SDS011;15053;48.618;10.024;2024-02-26T09:32:38;16.58;;;11.05;;
27642;SDS011;15053;48.618;10.024;2024-02-26T09:35:06;17.23;;;11.07;;
27642;SDS011;15053;48.618;10.024;2024-02-26T09:37:33;17.70;;;10.70;;
27642;SDS011;15053;48.618;10.024;2024-02-26T09:40:00;21.25;;;11.00;;
27642;SDS011;15053;48.618;10.024;2024-02-26T09:42:26;16.67;;;9.82;;
27642;SDS011;15053;48.618;10.024;2024-02-26T09:44:54;15.07;;;9.57;;
27642;SDS011;15053;48.618;10.024;2024-02-26T09:47:22;17.45;;;11.07;;
27642;SDS011;15053;48.618;10.024;2024-02-26T09:49:49;21.17;;;11.90;;
27642;SDS011;15053;48.618;10.024;2024-02-26T09:52:18;19.30;;;11.60;;
27642;SDS011;15053;48.618;10.024;2024-02-26T09:54:48;15.60;;;10.18;;
27642;SDS011;15053;48.618;10.024;2024-02-26T09:57:15;17.73;;;10.30;;
27642;SDS011;15053;48.618;10.024;2024-02-26T09:59:43;18.95;;;10.35;;
27642;SDS011;15053;48.618;10.024;2024-02-26T10:02:14;17.90;;;10.85;;
27642;SDS011;15053;48.618;10.024;2024-02-26T10:04:42;19.52;;;10.80;;
27642;SDS011;15053;48.618;10.024;2024-02-26T10:07:15;18.98;;;10.57;;
27642;SDS011;15053;48.618;10.024;2024-02-26T10:09:42;19.98;;;10.35;;
27642;SDS011;15053;48.618;10.024;2024-02-26T10:12:10;15.13;;;9.30;;
27642;SDS011;15053;48.618;10.024;2024-02-26T10:14:38;22.10;;;9.63;;
27642;SDS011;15053;48.618;10.024;2024-02-26T10:17:06;18.38;;;10.43;;
27642;SDS011;15053;48.618;10.024;2024-02-26T10:19:34;15.88;;;10.55;;
27642;SDS011;15053;48.618;10.024;2024-02-26T10:22:04;19.40;;;10.25;;
27642;SDS011;15053;48.618;10.024;2024-02-26T10:24:31;14.10;;;9.50;;
27642;SDS011;15053;48.618;10.024;2024-02-26T10:26:58;14.57;;;8.02;;
27642;SDS011;15053;48.618;10.024;2024-02-26T10:29:25;12.27;;;7.45;;
27642;SDS011;15053;48.618;10.024;2024-02-26T10:31:51;11.13;;;7.43;;
27642;SDS011;15053;48.618;10.024;2024-02-26T10:34:18;13.80;;;7.85;;
27642;SDS011;15053;48.618;10.024;2024-02-26T10:36:46;14.23;;;8.52;;
27642;SDS011;15053;48.618;10.024;2024-02-26T10:39:19;15.75;;;8.27;;
27642;SDS011;15053;48.618;10.024;2024-02-26T10:41:46;15.95;;;8.20;;
27642;SDS011;15053;48.618;10.024;2024-02-26T10:44:13;13.23;;;7.90;;
27642;SDS011;15053;48.618;10.024;2024-02-26T10:49:15;9.27;;;5.78;;
27642;SDS011;15053;48.618;10.024;2024-02-26T10:51:54;12.68;;;7.53;;
27642;SDS011;15053;48.618;10.024;2024-02-26T10:54:26;8.82;;;5.38;;
27642;SDS011;15053;48.618;10.024;2024-02-26T10:56:56;8.48;;;4.93;;
27642;SDS011;15053;48.618;10.024;2024-02-26T10:59:24;6.32;;;3.38;;
27642;SDS011;15053;48.618;10.024;2024-02-26T11:01:50;6.00;;;2.97;;
27642;SDS011;15053;48.618;10.024;2024-02-26T11:04:18;7.25;;;4.00;;
27642;SDS011;15053;48.618;10.024;2024-02-26T11:06:45;7.82;;;4.45;;
27642;SDS011;15053;48.618;10.024;2024-02-26T11:09:12;4.20;;;3.13;;
27642;SDS011;15053;48.618;10.024;2024-02-26T11:11:40;12.77;;;4.88;;
27642;SDS011;15053;48.618;10.024;2024-02-26T11:14:08;8.50;;;3.70;;
27642;SDS011;15053;48.618;10.024;2024-02-26T11:16:36;8.82;;;4.65;;
27642;SDS011;15053;48.618;10.024;2024-02-26T11:19:06;9.27;;;5.38;;
27642;SDS011;15053;48.618;10.024;2024-02-26T11:21:35;6.33;;;3.00;;
27642;SDS011;15053;48.618;10.024;2024-02-26T11:24:07;6.03;;;3.42;;
27642;SDS011;15053;48.618;10.024;2024-02-26T11:26:39;10.18;;;6.13;;
27642;SDS011;15053;48.618;10.024;2024-02-26T11:29:11;8.55;;;4.78;;
27642;SDS011;15053;48.618;10.024;2024-02-26T11:31:42;5.47;;;3.47;;
27642;SDS011;15053;48.618;10.024;2024-02-26T11:34:09;3.70;;;2.78;;
27642;SDS011;15053;48.618;10.024;2024-02-26T11:36:36;4.75;;;3.42;;
27642;SDS011;15053;48.618;10.024;2024-02-26T11:39:04;3.95;;;3.03;;
27642;SDS011;15053;48.618;10.024;2024-02-26T11:41:31;4.85;;;3.28;;
27642;SDS011;15053;48.618;10.024;2024-02-26T11:43:58;3.80;;;2.67;;
27642;SDS011;15053;48.618;10.024;2024-02-26T11:46:28;3.53;;;2.83;;
27642;SDS011;15053;48.618;10.024;2024-02-26T11:48:59;5.05;;;3.85;;
27642;SDS011;15053;48.618;10.024;2024-02-26T11:51:33;6.30;;;4.25;;
27642;SDS011;15053;48.618;10.024;2024-02-26T11:54:01;6.85;;;4.70;;
27642;SDS011;15053;48.618;10.024;2024-02-26T11:56:27;8.05;;;4.47;;
27642;SDS011;15053;48.618;10.024;2024-02-26T11:58:58;5.90;;;3.77;;
27642;SDS011;15053;48.618;10.024;2024-02-26T12:01:35;7.75;;;3.67;;
27642;SDS011;15053;48.618;10.024;2024-02-26T12:04:06;8.02;;;3.95;;
27642;SDS011;15053;48.618;10.024;2024-02-26T12:09:30;7.20;;;3.78;;
27642;SDS011;15053;48.618;10.024;2024-02-26T12:11:58;5.20;;;4.00;;
27642;SDS011;15053;48.618;10.024;2024-02-26T12:14:27;5.90;;;4.15;;
27642;SDS011;15053;48.618;10.024;2024-02-26T12:16:53;7.05;;;4.72;;
27642;SDS011;15053;48.618;10.024;2024-02-26T12:19:22;11.40;;;5.80;;
27642;SDS011;15053;48.618;10.024;2024-02-26T12:21:52;9.80;;;6.85;;
27642;SDS011;15053;48.618;10.024;2024-02-26T12:24:21;11.40;;;6.38;;
27642;SDS011;15053;48.618;10.024;2024-02-26T12:26:47;10.95;;;6.07;;
27642;SDS011;15053;48.618;10.024;2024-02-26T12:29:14;11.73;;;6.70;;
27642;SDS011;15053;48.618;10.024;2024-02-26T12:31:41;11.02;;;6.63;;
27642;SDS011;15053;48.618;10.024;2024-02-26T12:34:08;8.82;;;5.53;;
27642;SDS011;15053;48.618;10.024;2024-02-26T12:36:36;7.38;;;4.93;;
27642;SDS011;15053;48.618;10.024;2024-02-26T12:39:04;8.15;;;4.97;;
27642;SDS011;15053;48.618;10.024;2024-02-26T12:41:35;6.93;;;5.10;;
27642;SDS011;15053;48.618;10.024;2024-02-26T12:44:04;9.40;;;5.20;;
27642;SDS011;15053;48.618;10.024;2024-02-26T12:46:33;7.22;;;4.90;;
27642;SDS011;15053;48.618;10.024;2024-02-26T12:48:59;9.82;;;6.47;;
27642;SDS011;15053;48.618;10.024;2024-02-26T12:51:26;8.02;;;5.78;;
27642;SDS011;15053;48.618;10.024;2024-02-26T12:53:53;7.95;;;5.85;;
27642;SDS011;15053;48.618;10.024;2024-02-26T12:56:22;8.43;;;5.47;;
27642;SDS011;15053;48.618;10.024;2024-02-26T12:58:50;7.88;;;5.13;;
27642;SDS011;15053;48.618;10.024;2024-02-26T13:01:18;15.82;;;5.38;;
27642;SDS011;15053;48.618;10.024;2024-02-26T13:03:49;10.43;;;5.15;;
27642;SDS011;15053;48.618;10.024;2024-02-26T13:06:17;9.10;;;5.20;;
27642;SDS011;15053;48.618;10.024;2024-02-26T13:08:45;9.88;;;5.47;;
27642;SDS011;15053;48.618;10.024;2024-02-26T13:11:13;7.40;;;5.53;;
27642;SDS011;15053;48.618;10.024;2024-02-26T13:13:40;12.50;;;6.20;;
27642;SDS011;15053;48.618;10.024;2024-02-26T13:16:09;10.88;;;7.50;;
27642;SDS011;15053;48.618;10.024;2024-02-26T13:18:40;15.48;;;7.57;;
27642;SDS011;15053;48.618;10.024;2024-02-26T13:21:07;10.23;;;6.13;;
27642;SDS011;15053;48.618;10.024;2024-02-26T13:23:35;12.23;;;7.47;;
27642;SDS011;15053;48.618;10.024;2024-02-26T13:26:03;9.27;;;6.53;;
27642;SDS011;15053;48.618;10.024;2024-02-26T13:28:30;10.18;;;6.28;;
27642;SDS011;15053;48.618;10.024;2024-02-26T13:30:57;9.82;;;6.63;;
27642;SDS011;15053;48.618;10.024;2024-02-26T13:33:24;11.98;;;7.03;;
27642;SDS011;15053;48.618;10.024;2024-02-26T13:35:52;9.25;;;5.93;;
27642;SDS011;15053;48.618;10.024;2024-02-26T13:38:20;8.98;;;5.78;;
27642;SDS011;15053;48.618;10.024;2024-02-26T13:40:46;9.60;;;6.43;;
27642;SDS011;15053;48.618;10.024;2024-02-26T13:43:14;9.70;;;6.07;;
27642;SDS011;15053;48.618;10.024;2024-02-26T13:45:40;9.90;;;6.75;;
27642;SDS011;15053;48.618;10.024;2024-02-26T13:48:08;8.60;;;6.28;;
27642;SDS011;15053;48.618;10.024;2024-02-26T13:50:38;9.40;;;6.38;;
27642;SDS011;15053;48.618;10.024;2024-02-26T13:53:05;12.93;;;6.55;;
27642;SDS011;15053;48.618;10.024;2024-02-26T13:55:32;9.45;;;6.53;;
27642;SDS011;15053;48.618;10.024;2024-02-26T13:57:59;11.63;;;6.70;;
27642;SDS011;15053;48.618;10.024;2024-02-26T14:00:28;10.13;;;6.88;;
27642;SDS011;15053;48.618;10.024;2024-02-26T14:02:55;9.25;;;6.13;;
27642;SDS011;15053;48.618;10.024;2024-02-26T14:05:22;11.48;;;7.25;;
27642;SDS011;15053;48.618;10.024;2024-02-26T14:07:48;8.85;;;5.88;;
27642;SDS011;15053;48.618;10.024;2024-02-26T14:10:18;8.60;;;6.07;;
27642;SDS011;15053;48.618;10.024;2024-02-26T14:12:45;10.27;;;5.95;;
27642;SDS011;15053;48.618;10.024;2024-02-26T14:15:12;10.50;;;5.65;;
27642;SDS011;15053;48.618;10.024;2024-02-26T14:17:38;11.57;;;6.75;;
27642;SDS011;15053;48.618;10.024;2024-02-26T14:20:05;13.85;;;6.15;;
27642;SDS011;15053;48.618;10.024;2024-02-26T14:22:34;9.73;;;5.72;;
27642;SDS011;15053;48.618;10.024;2024-02-26T14:25:00;9.43;;;5.15;;
27642;SDS011;15053;48.618;10.024;2024-02-26T14:27:27;12.35;;;7.30;;